Waidhofen an der Ybbs, Austria
Current Conditions -  °F | °C
As of 3:50 PM on Friday 19 Dec 2014 (Local Time) from LOWL Reporting Station
Broken Clouds Broken Clouds  
Wind Chill: 55°   Ceiling: 26000
Heat Index: 55°   Visibility: 6mi
Dew Point: 46°   Wind: 8mph
Humidity: 72%   Direction: 270°W
Pressure: 30"   Gusts: NA
Location:  47.96°N, 14.77°E
Report Text: LOWL 191350Z 27007KT 9999 FEW024 SCT200 BKN260 13/08 Q1016 NOSIG
Loading
Personal Weather Stations






























Interactive Weather Map New forecast layout! Learn more

10-Day Weather Forecast

Advertisements
Track Severe Weather on mobile